createdAt,value
2022-09-07T00:00:35.033Z,7.30
2022-09-07T00:01:33.459Z,6.00
2022-09-07T00:02:33.389Z,6.80
2022-09-07T00:03:33.413Z,6.00
2022-09-07T00:04:33.375Z,7.50
2022-09-07T00:05:33.345Z,5.90
2022-09-07T00:06:33.382Z,6.70
2022-09-07T00:07:33.333Z,8.00
2022-09-07T00:08:33.294Z,8.20
2022-09-07T00:09:34.432Z,8.20
2022-09-07T00:10:33.300Z,6.80
2022-09-07T00:11:33.381Z,6.20
2022-09-07T00:12:33.458Z,7.00
2022-09-07T00:13:33.381Z,6.30
2022-09-07T00:14:33.413Z,6.20
2022-09-07T00:15:33.347Z,7.60
2022-09-07T00:16:33.420Z,7.70
2022-09-07T00:17:33.393Z,8.70
2022-09-07T00:18:33.399Z,6.30
2022-09-07T00:19:33.346Z,5.70
2022-09-07T00:20:33.313Z,6.50
2022-09-07T00:21:33.301Z,5.80
2022-09-07T00:22:34.350Z,5.60
2022-09-07T00:23:33.325Z,5.40
2022-09-07T00:24:33.335Z,5.50
2022-09-07T00:25:33.307Z,5.20
2022-09-07T00:26:33.403Z,5.70
2022-09-07T00:27:33.279Z,6.10
2022-09-07T00:28:33.326Z,6.30
2022-09-07T00:29:33.195Z,6.70
2022-09-07T00:30:33.181Z,5.60
2022-09-07T00:31:33.303Z,5.60
2022-09-07T00:32:33.162Z,5.50
2022-09-07T00:33:33.232Z,5.60
2022-09-07T00:34:33.153Z,5.70
2022-09-07T00:35:33.129Z,7.30
2022-09-07T00:36:33.096Z,8.70
2022-09-07T00:37:33.107Z,13.10
2022-09-07T00:38:33.118Z,9.90
2022-09-07T00:39:33.266Z,6.90
2022-09-07T00:40:33.220Z,6.40
2022-09-07T00:41:33.191Z,7.10
2022-09-07T00:42:33.181Z,6.00
2022-09-07T00:43:33.212Z,6.40
2022-09-07T00:44:33.190Z,7.70
2022-09-07T00:45:33.167Z,7.70
2022-09-07T00:46:33.209Z,8.20
2022-09-07T00:47:33.182Z,7.00
2022-09-07T00:48:33.128Z,8.00
2022-09-07T00:49:33.182Z,6.60
2022-09-07T00:50:33.150Z,6.50
2022-09-07T00:51:33.106Z,6.80
2022-09-07T00:52:33.094Z,5.70
2022-09-07T00:53:33.073Z,6.70
2022-09-07T00:54:33.063Z,6.60
2022-09-07T00:55:33.214Z,6.00
2022-09-07T00:56:33.037Z,6.50
2022-09-07T00:57:33.050Z,6.20
2022-09-07T00:58:33.082Z,6.20
2022-09-07T00:59:32.922Z,5.50
2022-09-07T01:00:32.937Z,6.10
2022-09-07T01:01:34.089Z,5.70
2022-09-07T01:02:33.037Z,6.90
2022-09-07T01:03:32.922Z,6.00
2022-09-07T01:04:32.940Z,5.80
2022-09-07T01:05:32.881Z,7.00
2022-09-07T01:06:32.976Z,5.80
2022-09-07T01:07:32.887Z,6.40
2022-09-07T01:08:33.016Z,5.90
2022-09-07T01:09:32.981Z,6.20
2022-09-07T01:10:33.011Z,5.20
2022-09-07T01:11:32.941Z,6.30
2022-09-07T01:12:33.000Z,9.90
2022-09-07T01:13:32.930Z,10.10
2022-09-07T01:14:33.996Z,8.40
2022-09-07T01:15:32.962Z,5.80
2022-09-07T01:16:32.915Z,5.60
2022-09-07T01:17:32.953Z,5.80
2022-09-07T01:18:32.899Z,6.80
2022-09-07T01:19:32.873Z,7.30
2022-09-07T01:20:32.927Z,6.30
2022-09-07T01:21:32.863Z,6.80
2022-09-07T01:22:32.905Z,5.30
2022-09-07T01:23:32.927Z,6.80
2022-09-07T01:24:32.866Z,8.40
2022-09-07T01:25:32.826Z,6.50
2022-09-07T01:26:32.821Z,5.40
2022-09-07T01:27:32.892Z,8.30
2022-09-07T01:28:32.890Z,6.60
2022-09-07T01:29:32.787Z,5.60
2022-09-07T01:30:32.724Z,6.40
2022-09-07T01:31:32.778Z,6.20
2022-09-07T01:32:32.723Z,7.70
2022-09-07T01:33:32.693Z,8.40
2022-09-07T01:34:33.775Z,9.10
2022-09-07T01:35:32.679Z,8.50
2022-09-07T01:36:32.654Z,8.10
2022-09-07T01:37:32.706Z,7.60
2022-09-07T01:38:32.672Z,5.50
2022-09-07T01:39:32.878Z,5.90
2022-09-07T01:40:32.811Z,6.40
2022-09-07T01:41:32.745Z,5.90
2022-09-07T01:42:32.747Z,6.20
2022-09-07T01:43:32.751Z,6.30
2022-09-07T01:44:32.751Z,6.90
2022-09-07T01:45:32.753Z,7.60
2022-09-07T01:46:32.797Z,7.00
2022-09-07T01:47:32.690Z,7.40
2022-09-07T01:48:32.692Z,8.20
2022-09-07T01:49:32.678Z,9.60
2022-09-07T01:50:32.741Z,9.30
2022-09-07T01:51:32.662Z,8.40
2022-09-07T01:52:32.721Z,9.20
2022-09-07T01:53:32.633Z,10.30
2022-09-07T01:54:32.724Z,9.50
2022-09-07T01:55:32.638Z,8.80
2022-09-07T01:56:33.002Z,8.00
2022-09-07T01:57:32.529Z,6.90
2022-09-07T01:58:32.616Z,6.60
2022-09-07T01:59:32.639Z,8.50
2022-09-07T02:00:32.510Z,8.90
2022-09-07T02:01:32.622Z,8.10
2022-09-07T02:02:32.545Z,7.40
2022-09-07T02:03:32.464Z,6.90
2022-09-07T02:04:32.551Z,7.80
2022-09-07T02:05:32.559Z,7.70
2022-09-07T02:06:32.559Z,7.60
2022-09-07T02:07:32.605Z,7.10
2022-09-07T02:08:32.543Z,7.30
2022-09-07T02:09:32.507Z,7.20
2022-09-07T02:10:33.508Z,7.20
2022-09-07T02:11:32.474Z,7.00
2022-09-07T02:12:32.538Z,6.60
2022-09-07T02:13:32.518Z,7.90
2022-09-07T02:14:32.463Z,7.50
2022-09-07T02:15:32.551Z,7.10
2022-09-07T02:16:32.475Z,6.80
2022-09-07T02:17:32.610Z,7.30
2022-09-07T02:18:32.463Z,7.90
2022-09-07T02:19:32.463Z,7.50
2022-09-07T02:20:32.430Z,6.60
2022-09-07T02:21:32.403Z,6.90
2022-09-07T02:22:32.370Z,7.20
2022-09-07T02:23:32.373Z,6.90
2022-09-07T02:24:32.341Z,6.50
2022-09-07T02:25:32.457Z,7.40
2022-09-07T02:26:32.409Z,7.00
2022-09-07T02:27:32.410Z,6.20
2022-09-07T02:28:32.729Z,7.70
2022-09-07T02:29:32.355Z,10.90
2022-09-07T02:30:32.393Z,17.60
2022-09-07T02:31:32.405Z,22.30
2022-09-07T02:32:32.374Z,21.00
2022-09-07T02:33:32.389Z,15.00
2022-09-07T02:34:32.428Z,17.60
2022-09-07T02:35:32.356Z,8.50
2022-09-07T02:36:32.410Z,5.80
2022-09-07T02:37:32.380Z,11.50
2022-09-07T02:38:32.480Z,6.60
2022-09-07T02:39:32.415Z,7.80
2022-09-07T02:40:32.325Z,5.90
2022-09-07T02:41:32.313Z,7.90
2022-09-07T02:42:32.288Z,8.20
2022-09-07T02:43:32.326Z,5.70
2022-09-07T02:44:32.297Z,7.40
2022-09-07T02:45:32.230Z,6.50
2022-09-07T02:46:32.282Z,9.30
2022-09-07T02:47:32.147Z,5.70
2022-09-07T02:48:32.282Z,7.20
2022-09-07T02:49:32.132Z,6.00
2022-09-07T02:50:32.159Z,6.80
2022-09-07T02:51:32.150Z,6.70
2022-09-07T02:52:32.127Z,6.50
2022-09-07T02:53:32.156Z,5.60
2022-09-07T02:54:32.218Z,5.80
2022-09-07T02:55:32.243Z,6.00
2022-09-07T02:56:32.219Z,5.00
2022-09-07T02:57:32.204Z,6.70
2022-09-07T02:58:32.215Z,5.60
2022-09-07T02:59:32.215Z,6.40
2022-09-07T03:00:32.192Z,6.40
2022-09-07T03:01:32.724Z,5.60
2022-09-07T03:02:32.211Z,5.90
2022-09-07T03:03:32.136Z,5.40
2022-09-07T03:04:32.131Z,6.00
2022-09-07T03:05:32.137Z,5.60
2022-09-07T03:06:32.147Z,5.30
2022-09-07T03:07:34.602Z,6.00
2022-09-07T03:08:33.121Z,5.60
2022-09-07T03:09:32.120Z,5.00
2022-09-07T03:10:32.090Z,4.80
2022-09-07T03:11:32.083Z,5.50
2022-09-07T03:12:32.144Z,5.10
2022-09-07T03:13:32.061Z,5.20
2022-09-07T03:14:32.114Z,5.90
2022-09-07T03:15:32.053Z,6.20
2022-09-07T03:16:31.976Z,6.00
2022-09-07T03:17:32.094Z,5.10
2022-09-07T03:18:32.158Z,6.30
2022-09-07T03:19:31.940Z,6.50
2022-09-07T03:20:31.935Z,6.60
2022-09-07T03:21:31.930Z,5.40
2022-09-07T03:22:31.962Z,4.90
2022-09-07T03:23:32.056Z,5.80
2022-09-07T03:24:32.030Z,5.80
2022-09-07T03:25:32.016Z,5.00
2022-09-07T03:26:31.962Z,5.10
2022-09-07T03:27:31.927Z,5.80
2022-09-07T03:28:32.113Z,5.60
2022-09-07T03:29:31.971Z,5.20
2022-09-07T03:30:32.018Z,5.50
2022-09-07T03:31:31.924Z,5.50
2022-09-07T03:32:31.888Z,5.50
2022-09-07T03:33:31.920Z,5.70
2022-09-07T03:34:31.949Z,6.00
2022-09-07T03:35:31.922Z,5.20
2022-09-07T03:36:31.931Z,5.10
2022-09-07T03:37:31.920Z,5.50
2022-09-07T03:38:31.999Z,5.20
2022-09-07T03:39:32.007Z,5.00
2022-09-07T03:40:31.918Z,5.20
2022-09-07T03:41:31.917Z,5.40
2022-09-07T03:42:31.899Z,5.40
2022-09-07T03:43:31.770Z,5.40
2022-09-07T03:44:31.727Z,7.80
2022-09-07T03:45:31.800Z,6.00
2022-09-07T03:46:31.790Z,5.80
2022-09-07T03:47:31.774Z,7.70
2022-09-07T03:48:31.948Z,4.70
2022-09-07T03:49:31.711Z,5.20
2022-09-07T03:50:31.731Z,6.30
2022-09-07T03:51:31.668Z,5.20
2022-09-07T03:52:31.705Z,5.20
2022-09-07T03:53:31.704Z,5.20
2022-09-07T03:54:31.788Z,5.00
2022-09-07T03:55:31.785Z,5.70
2022-09-07T03:56:31.821Z,5.70
2022-09-07T03:57:31.757Z,7.20
2022-09-07T03:58:31.870Z,5.30
2022-09-07T03:59:31.740Z,5.40
2022-09-07T04:00:31.738Z,7.60
2022-09-07T04:01:31.875Z,11.80
2022-09-07T04:02:31.822Z,13.00
2022-09-07T04:03:31.683Z,14.20
2022-09-07T04:04:31.740Z,10.70
2022-09-07T04:05:31.675Z,12.00
2022-09-07T04:06:32.027Z,14.10
2022-09-07T04:07:31.673Z,15.00
2022-09-07T04:08:31.755Z,13.00
2022-09-07T04:09:31.659Z,11.30
2022-09-07T04:10:31.627Z,8.50
2022-09-07T04:11:31.650Z,8.90
2022-09-07T04:12:31.666Z,8.40
2022-09-07T04:13:31.683Z,8.90
2022-09-07T04:14:32.622Z,9.00
2022-09-07T04:15:31.552Z,10.00
2022-09-07T04:16:31.591Z,12.00
2022-09-07T04:17:31.538Z,12.70
2022-09-07T04:18:31.745Z,12.80
2022-09-07T04:19:31.543Z,16.60
2022-09-07T04:20:31.475Z,15.50
2022-09-07T04:21:31.589Z,15.10
2022-09-07T04:22:31.611Z,11.70
2022-09-07T04:23:31.571Z,11.40
2022-09-07T04:24:31.574Z,11.40
2022-09-07T04:25:31.573Z,12.20
2022-09-07T04:26:31.530Z,10.60
2022-09-07T04:27:31.579Z,9.90
2022-09-07T04:28:31.683Z,9.10
2022-09-07T04:29:31.623Z,9.90
2022-09-07T04:30:31.578Z,11.90
2022-09-07T04:31:31.526Z,18.10
2022-09-07T04:32:31.659Z,15.60
2022-09-07T04:33:31.612Z,15.30
2022-09-07T04:34:31.442Z,13.30
2022-09-07T04:35:31.434Z,15.10
2022-09-07T04:36:31.424Z,13.30
2022-09-07T04:37:32.421Z,17.70
2022-09-07T04:38:31.539Z,22.50
2022-09-07T04:39:31.466Z,13.30
2022-09-07T04:40:31.493Z,14.20
2022-09-07T04:41:31.443Z,11.70
2022-09-07T04:42:31.459Z,11.60
2022-09-07T04:43:31.636Z,12.30
2022-09-07T04:44:31.480Z,14.00
2022-09-07T04:45:31.491Z,15.90
2022-09-07T04:46:31.451Z,13.90
2022-09-07T04:47:31.419Z,15.30
2022-09-07T04:48:31.594Z,15.80
2022-09-07T04:49:31.435Z,16.60
2022-09-07T04:50:31.502Z,18.20
2022-09-07T04:51:31.411Z,17.80
2022-09-07T04:52:31.437Z,16.70
2022-09-07T04:53:31.394Z,17.10
2022-09-07T04:54:31.397Z,13.40
2022-09-07T04:55:31.417Z,14.90
2022-09-07T04:56:31.408Z,14.50
2022-09-07T04:57:31.604Z,15.90
2022-09-07T04:58:31.356Z,18.20
2022-09-07T04:59:31.231Z,22.10
2022-09-07T05:00:31.253Z,20.80
2022-09-07T05:01:31.364Z,20.80
2022-09-07T05:02:31.260Z,21.00
2022-09-07T05:03:31.218Z,29.30
2022-09-07T05:04:31.253Z,19.60
2022-09-07T05:05:31.206Z,18.70
2022-09-07T05:06:31.265Z,26.50
2022-09-07T05:07:31.285Z,22.20
2022-09-07T05:08:31.379Z,24.00
2022-09-07T05:09:31.328Z,25.70
2022-09-07T05:10:31.219Z,32.10
2022-09-07T05:11:31.360Z,27.30
2022-09-07T05:12:31.248Z,27.00
2022-09-07T05:13:31.333Z,29.30
2022-09-07T05:14:31.259Z,19.80
2022-09-07T05:15:31.176Z,19.30
2022-09-07T05:16:31.279Z,18.10
2022-09-07T05:17:31.235Z,18.30
2022-09-07T05:18:31.371Z,13.30
2022-09-07T05:19:31.174Z,14.30
2022-09-07T05:20:31.230Z,13.80
2022-09-07T05:21:31.196Z,12.00
2022-09-07T05:22:31.197Z,11.00
2022-09-07T05:23:31.140Z,11.70
2022-09-07T05:24:31.171Z,11.70
2022-09-07T05:25:31.116Z,15.10
2022-09-07T05:26:31.190Z,11.80
2022-09-07T05:27:31.187Z,9.80
2022-09-07T05:28:31.431Z,9.50
2022-09-07T05:31:33.024Z,8.10
2022-09-07T05:32:31.076Z,9.80
2022-09-07T05:34:33.314Z,12.50
2022-09-07T05:35:31.040Z,12.90
2022-09-07T05:36:31.182Z,13.30
2022-09-07T05:37:30.960Z,15.00
2022-09-07T05:38:31.317Z,13.70
2022-09-07T05:39:31.143Z,15.30
2022-09-07T05:40:31.029Z,12.90
2022-09-07T05:41:31.073Z,13.70
2022-09-07T05:42:31.107Z,11.90
2022-09-07T05:43:31.001Z,11.50
2022-09-07T05:44:46.496Z,11.30
2022-09-07T05:45:33.036Z,13.20
2022-09-07T05:46:30.992Z,10.90
2022-09-07T05:47:30.995Z,9.90
2022-09-07T05:48:31.053Z,13.90
2022-09-07T05:49:31.078Z,13.80
2022-09-07T05:50:30.956Z,11.90
2022-09-07T05:51:31.040Z,10.80
2022-09-07T05:52:30.962Z,10.70
2022-09-07T05:53:30.972Z,10.60
2022-09-07T05:54:30.919Z,9.90
2022-09-07T05:55:31.088Z,10.30
2022-09-07T05:56:31.002Z,10.20
2022-09-07T05:57:30.985Z,10.10
2022-09-07T05:58:30.867Z,8.80
2022-09-07T05:59:30.850Z,7.70
2022-09-07T06:00:30.813Z,9.70
2022-09-07T06:01:30.798Z,8.90
2022-09-07T06:02:30.855Z,7.50
2022-09-07T06:03:30.853Z,9.70
2022-09-07T06:04:30.775Z,8.90
2022-09-07T06:05:30.761Z,9.70
2022-09-07T06:06:30.881Z,12.50
2022-09-07T06:07:30.879Z,12.00
2022-09-07T06:08:30.917Z,10.80
2022-09-07T06:09:30.908Z,9.80
2022-09-07T06:10:46.142Z,9.40
2022-09-07T06:11:33.183Z,9.10
2022-09-07T06:12:30.847Z,9.30
2022-09-07T06:13:30.907Z,10.00
2022-09-07T06:14:30.881Z,9.40
2022-09-07T07:32:36.020Z,11.00
2022-09-07T07:33:37.523Z,8.50
2022-09-07T07:34:37.159Z,7.70
2022-09-07T07:35:37.073Z,8.70
2022-09-07T07:36:36.954Z,7.30
2022-09-07T07:37:37.042Z,7.30
2022-09-07T07:40:39.798Z,6.00
2022-09-07T07:41:54.412Z,4.90
2022-09-07T07:42:38.889Z,4.80
2022-09-07T07:43:36.940Z,4.70
2022-09-07T07:44:36.814Z,4.80
2022-09-07T07:46:38.797Z,4.10
2022-09-07T07:47:37.875Z,3.90
2022-09-07T07:48:36.789Z,4.00
2022-09-07T07:49:36.886Z,4.10
2022-09-07T07:50:36.952Z,4.00
2022-09-07T07:53:41.581Z,3.50
2022-09-07T07:54:37.858Z,3.50
2022-09-07T07:55:44.513Z,3.90
2022-09-07T07:56:38.948Z,4.10
2022-09-07T07:57:36.852Z,4.20
2022-09-07T07:58:37.873Z,3.70
2022-09-07T07:59:36.844Z,3.60
2022-09-07T08:00:53.032Z,3.50
2022-09-07T08:01:38.767Z,3.60
2022-09-07T08:02:36.805Z,3.50
2022-09-07T08:03:36.769Z,3.60
2022-09-07T08:04:36.807Z,4.10
2022-09-07T08:05:36.902Z,3.80
2022-09-07T08:06:36.757Z,3.70
2022-09-07T08:07:36.732Z,3.70
2022-09-07T08:08:36.637Z,3.50
2022-09-07T08:09:36.703Z,3.70
2022-09-07T08:10:36.752Z,3.50
2022-09-07T08:11:36.763Z,3.30
2022-09-07T08:12:36.678Z,3.40
2022-09-07T08:13:36.719Z,3.20
2022-09-07T08:14:36.663Z,3.40
2022-09-07T08:15:36.768Z,3.50
2022-09-07T08:16:36.728Z,3.30
2022-09-07T08:17:36.661Z,3.30
2022-09-07T08:18:36.683Z,3.70
2022-09-07T08:19:36.626Z,3.10
2022-09-07T08:20:36.706Z,3.10
2022-09-07T08:21:36.655Z,3.70
2022-09-07T08:22:36.607Z,3.60
2022-09-07T08:23:36.667Z,3.60
2022-09-07T08:24:36.677Z,3.40
2022-09-07T08:25:36.655Z,3.30
2022-09-07T08:26:36.703Z,3.30
2022-09-07T08:27:36.546Z,3.00
2022-09-07T08:28:36.626Z,3.10
2022-09-07T08:29:36.585Z,3.20
2022-09-07T08:30:36.551Z,2.90
2022-09-07T08:31:36.673Z,3.00
2022-09-07T08:32:36.615Z,3.40
2022-09-07T08:33:36.477Z,3.10
2022-09-07T08:34:36.431Z,3.10
2022-09-07T08:35:36.472Z,3.20
2022-09-07T08:36:36.474Z,3.50
2022-09-07T08:37:36.638Z,3.50
2022-09-07T08:38:36.458Z,3.40
2022-09-07T08:39:36.487Z,3.20
2022-09-07T08:40:36.409Z,3.30
2022-09-07T08:41:36.387Z,3.60
2022-09-07T08:42:37.409Z,3.80
2022-09-07T08:43:36.437Z,3.10
2022-09-07T08:44:36.487Z,3.10
2022-09-07T08:45:36.536Z,3.30
2022-09-07T08:46:36.537Z,3.50
2022-09-07T08:47:36.517Z,3.40
2022-09-07T08:48:36.430Z,3.30
2022-09-07T08:49:36.449Z,3.20
2022-09-07T08:50:36.454Z,3.20
2022-09-07T08:51:36.426Z,3.40
2022-09-07T08:52:36.377Z,3.40
2022-09-07T08:53:36.473Z,3.70
2022-09-07T08:54:36.462Z,3.40
2022-09-07T08:55:36.452Z,3.40
2022-09-07T08:56:36.435Z,3.20
2022-09-07T08:57:36.285Z,3.00
2022-09-07T08:58:51.140Z,3.10
2022-09-07T08:59:38.308Z,2.80
2022-09-07T09:00:36.401Z,3.50
2022-09-07T09:01:37.095Z,3.90
2022-09-07T09:02:43.606Z,3.50
2022-09-07T09:04:15.370Z,3.70
2022-09-07T09:05:16.121Z,3.30
2022-09-07T09:05:38.324Z,3.30
2022-09-07T09:06:36.392Z,3.20
2022-09-07T09:07:36.326Z,3.10
2022-09-07T09:08:36.430Z,3.00
2022-09-07T09:09:36.481Z,2.70
2022-09-07T09:10:36.347Z,3.40
2022-09-07T09:11:36.279Z,3.40
2022-09-07T09:12:37.831Z,3.50
2022-09-07T09:13:37.246Z,3.00
2022-09-07T09:14:37.335Z,3.50
2022-09-07T09:15:36.293Z,3.50
2022-09-07T09:16:36.286Z,3.00
2022-09-07T09:17:36.248Z,3.10
2022-09-07T09:18:36.276Z,2.90
2022-09-07T09:19:36.254Z,3.40
2022-09-07T09:20:36.282Z,3.80
2022-09-07T09:21:36.275Z,3.80
2022-09-07T09:22:36.269Z,5.00
2022-09-07T09:23:36.206Z,3.50
2022-09-07T09:24:36.329Z,3.20
2022-09-07T09:25:36.216Z,3.20
2022-09-07T09:26:36.216Z,3.10
2022-09-07T09:27:36.149Z,3.40
2022-09-07T09:28:36.366Z,3.10
2022-09-07T09:29:36.140Z,3.50
2022-09-07T09:30:36.107Z,3.40
2022-09-07T09:31:36.174Z,3.40
2022-09-07T09:32:36.593Z,3.50
2022-09-07T09:33:36.052Z,3.60
2022-09-07T09:34:36.146Z,3.20
2022-09-07T09:35:36.062Z,4.20
2022-09-07T09:36:35.983Z,3.20
2022-09-07T09:37:36.160Z,3.60
2022-09-07T09:38:36.125Z,3.60
2022-09-07T09:39:36.174Z,3.10
2022-09-07T09:40:36.514Z,4.80
2022-09-07T09:41:36.167Z,3.90
2022-09-07T09:42:36.135Z,3.80
2022-09-07T09:43:36.163Z,3.50
2022-09-07T09:44:36.111Z,3.10
2022-09-07T09:46:38.127Z,3.70
2022-09-07T09:47:36.234Z,3.00
2022-09-07T09:48:36.077Z,3.00
2022-09-07T09:49:36.025Z,3.00
2022-09-07T09:52:47.795Z,2.80
2022-09-07T09:53:38.019Z,2.60
2022-09-07T09:54:35.977Z,2.80
2022-09-07T09:55:36.482Z,2.90
2022-09-07T09:56:36.881Z,3.20
2022-09-07T09:57:36.176Z,3.20
2022-09-07T10:01:21.054Z,3.20
2022-09-07T10:03:10.549Z,3.60
2022-09-07T10:04:37.842Z,3.30
2022-09-07T10:05:35.833Z,3.30
2022-09-07T10:06:36.043Z,2.80
2022-09-07T10:07:35.913Z,3.60
2022-09-07T10:08:36.044Z,3.00
2022-09-07T10:09:37.975Z,3.40
2022-09-07T10:10:36.874Z,2.80
2022-09-07T10:12:05.787Z,3.40
2022-09-07T10:12:37.765Z,3.30
2022-09-07T10:13:35.913Z,4.10
2022-09-07T10:14:35.853Z,3.60
2022-09-07T10:15:40.599Z,3.10
2022-09-07T10:16:37.824Z,3.20
2022-09-07T10:17:35.884Z,3.30
2022-09-07T10:18:36.021Z,2.60
2022-09-07T10:19:35.844Z,3.10
2022-09-07T10:20:35.785Z,3.30
2022-09-07T10:21:35.826Z,3.00
2022-09-07T10:22:35.839Z,3.40
2022-09-07T10:23:35.783Z,3.10
2022-09-07T10:24:35.763Z,3.40
2022-09-07T10:25:35.894Z,3.70
2022-09-07T10:26:35.741Z,3.20
2022-09-07T10:27:35.658Z,3.00
2022-09-07T10:29:37.740Z,3.40
2022-09-07T10:30:35.751Z,3.50
2022-09-07T10:31:35.834Z,3.40
2022-09-07T10:32:35.767Z,2.70
2022-09-07T10:33:35.726Z,2.80
2022-09-07T10:34:35.761Z,3.40
2022-09-07T10:35:35.763Z,2.90
2022-09-07T10:36:36.117Z,3.40
2022-09-07T10:37:35.703Z,3.20
2022-09-07T10:38:35.751Z,2.80
2022-09-07T10:39:35.784Z,2.70
2022-09-07T10:40:35.740Z,2.50
2022-09-07T10:41:35.670Z,2.60
2022-09-07T10:42:35.640Z,3.30
2022-09-07T10:43:35.652Z,2.60
2022-09-07T10:44:35.683Z,2.90
2022-09-07T10:45:35.901Z,2.90
2022-09-07T10:47:37.583Z,2.70
2022-09-07T10:48:35.529Z,3.20
2022-09-07T10:49:35.547Z,2.70
2022-09-07T10:50:35.581Z,2.60
2022-09-07T10:51:35.493Z,4.90
2022-09-07T10:52:35.553Z,2.80
2022-09-07T10:53:43.122Z,2.70
2022-09-07T10:54:37.501Z,2.70
2022-09-07T10:55:35.496Z,2.70
2022-09-07T10:56:35.682Z,3.20
2022-09-07T10:57:35.582Z,2.40
2022-09-07T10:59:05.185Z,2.40
2022-09-07T11:00:37.431Z,2.40
2022-09-07T11:01:35.599Z,3.30
2022-09-07T11:02:35.615Z,3.10
2022-09-07T11:03:35.579Z,2.70
2022-09-07T11:04:35.495Z,2.40
2022-09-07T11:05:38.398Z,2.40
2022-09-07T11:06:36.543Z,2.70
2022-09-07T11:07:35.612Z,2.90
2022-09-07T11:09:15.760Z,2.60
2022-09-07T11:09:37.432Z,2.50
2022-09-07T11:10:35.361Z,2.40
2022-09-07T11:12:04.924Z,2.50
2022-09-07T11:12:37.397Z,2.40
2022-09-07T11:13:50.217Z,2.70
2022-09-07T11:14:37.433Z,2.80
2022-09-07T11:15:35.370Z,2.60
2022-09-07T11:16:51.385Z,2.50
2022-09-07T11:17:37.355Z,2.60
2022-09-07T11:18:35.353Z,2.50
2022-09-07T11:19:36.464Z,2.70
2022-09-07T11:20:35.409Z,2.80
2022-09-07T11:22:37.322Z,2.70
2022-09-07T11:23:40.328Z,2.40
2022-09-07T11:24:37.632Z,2.50
2022-09-07T11:25:35.505Z,2.70
2022-09-07T11:26:35.402Z,2.40
2022-09-07T11:27:35.461Z,2.70
2022-09-07T11:28:35.344Z,2.30
2022-09-07T11:29:36.248Z,2.40
2022-09-07T11:30:35.840Z,2.60
2022-09-07T11:31:35.457Z,2.70
2022-09-07T11:32:35.204Z,2.70
2022-09-07T11:33:35.280Z,2.50
2022-09-07T11:34:35.275Z,2.60
2022-09-07T11:35:35.199Z,2.80
2022-09-07T11:36:35.380Z,2.50
2022-09-07T11:37:35.288Z,2.60
2022-09-07T11:38:35.375Z,2.20
2022-09-07T11:39:35.462Z,2.20
2022-09-07T11:40:35.302Z,2.40
2022-09-07T11:41:35.311Z,2.40
2022-09-07T11:42:43.196Z,2.20
2022-09-07T11:43:37.223Z,2.10
2022-09-07T11:44:35.257Z,3.20
2022-09-07T11:45:35.317Z,2.10
2022-09-07T11:46:35.307Z,2.20
2022-09-07T11:47:35.282Z,2.80
2022-09-07T11:48:35.532Z,2.40
2022-09-07T11:49:35.097Z,2.20
2022-09-07T11:50:35.440Z,2.30
2022-09-07T11:51:35.080Z,2.20
2022-09-07T11:52:35.193Z,2.40
2022-09-07T11:53:35.095Z,2.10
2022-09-07T11:54:35.092Z,2.10
2022-09-07T11:55:35.156Z,2.20
2022-09-07T11:56:36.698Z,2.40
2022-09-07T11:57:36.160Z,2.20
2022-09-07T11:58:35.129Z,2.30
2022-09-07T11:59:37.006Z,2.20
2022-09-07T12:00:36.157Z,2.40
2022-09-07T12:01:35.235Z,2.00
2022-09-07T12:02:57.697Z,2.50
2022-09-07T12:03:37.159Z,1.90
2022-09-07T12:04:35.224Z,2.10
2022-09-07T12:05:35.124Z,2.10
2022-09-07T12:06:35.106Z,2.20
2022-09-07T12:07:35.119Z,2.20
2022-09-07T12:08:35.068Z,2.50
2022-09-07T12:09:35.103Z,2.20
2022-09-07T12:10:35.069Z,2.30
2022-09-07T12:11:34.978Z,2.00
2022-09-07T12:12:34.980Z,2.30
2022-09-07T12:13:34.971Z,2.30
2022-09-07T12:14:34.982Z,2.00
2022-09-07T12:15:34.950Z,2.50
2022-09-07T12:16:35.001Z,2.30
2022-09-07T12:17:35.007Z,2.20
2022-09-07T12:18:35.014Z,2.20
2022-09-07T12:19:34.974Z,2.00
2022-09-07T12:20:35.005Z,2.30
2022-09-07T12:21:34.993Z,2.20
2022-09-07T12:22:34.998Z,2.20
2022-09-07T12:23:35.017Z,1.90
2022-09-07T12:24:35.048Z,2.20
2022-09-07T12:25:34.991Z,2.00
2022-09-07T12:26:35.105Z,1.90
2022-09-07T12:27:34.920Z,2.20
2022-09-07T12:28:35.183Z,2.00
2022-09-07T12:29:35.902Z,2.00
2022-09-07T12:30:34.854Z,2.00
2022-09-07T12:31:39.635Z,2.30
2022-09-07T12:33:36.783Z,2.20
2022-09-07T12:34:34.751Z,2.80
2022-09-07T12:35:34.800Z,2.00
2022-09-07T12:36:34.762Z,2.30
2022-09-07T12:37:34.839Z,2.40
2022-09-07T12:38:34.852Z,2.60
2022-09-07T12:39:34.892Z,3.60
2022-09-07T12:40:34.891Z,2.00
2022-09-07T12:41:34.863Z,2.00
2022-09-07T12:42:37.263Z,2.30
2022-09-07T12:43:34.830Z,2.50
2022-09-07T12:44:34.775Z,2.20
2022-09-07T12:45:34.885Z,2.20
2022-09-07T12:46:35.318Z,2.10
2022-09-07T12:47:34.865Z,2.20
2022-09-07T12:48:34.784Z,2.10
2022-09-07T12:49:34.784Z,2.30
2022-09-07T12:50:38.263Z,2.00
2022-09-07T12:52:36.665Z,2.20
2022-09-07T12:53:34.893Z,2.00
2022-09-07T12:54:34.728Z,2.50
2022-09-07T12:56:15.645Z,2.30
2022-09-07T12:56:35.640Z,2.10
2022-09-07T12:57:34.784Z,1.90
2022-09-07T12:58:34.586Z,2.20
2022-09-07T12:59:34.594Z,2.10
2022-09-07T13:00:34.730Z,2.20
2022-09-07T13:01:34.750Z,2.40
2022-09-07T13:02:34.835Z,1.80
2022-09-07T13:03:58.661Z,1.80
2022-09-07T13:04:36.550Z,2.10
2022-09-07T13:05:34.612Z,2.20
2022-09-07T13:07:04.125Z,2.00
2022-09-07T13:07:36.539Z,2.20
2022-09-07T13:08:34.683Z,2.10
2022-09-07T13:09:34.628Z,2.10
2022-09-07T13:10:35.172Z,2.20
2022-09-07T13:11:34.616Z,2.00
2022-09-07T13:14:08.901Z,2.50
2022-09-07T13:14:36.472Z,2.70
2022-09-07T13:15:34.628Z,2.40
2022-09-07T13:17:16.038Z,2.10
2022-09-07T13:17:36.480Z,2.00
2022-09-07T13:18:34.566Z,1.80
2022-09-07T13:19:34.440Z,1.80
2022-09-07T13:20:39.682Z,1.70
2022-09-07T13:21:36.487Z,2.00
2022-09-07T13:22:34.582Z,2.10
2022-09-07T13:23:34.465Z,2.20
2022-09-07T13:24:49.837Z,2.10
2022-09-07T13:25:36.571Z,3.50
2022-09-07T13:26:34.402Z,1.80
2022-09-07T13:27:34.415Z,2.30
2022-09-07T13:28:34.550Z,2.80
2022-09-07T13:29:34.524Z,2.00
2022-09-07T13:30:34.540Z,1.80
2022-09-07T13:31:34.681Z,1.70
2022-09-07T13:33:36.427Z,2.10
2022-09-07T13:34:34.487Z,2.00
2022-09-07T13:35:34.522Z,2.00
2022-09-07T13:36:34.733Z,1.70
2022-09-07T13:37:34.650Z,1.80
2022-09-07T13:38:34.461Z,1.70
2022-09-07T13:39:34.596Z,1.90
2022-09-07T13:40:34.455Z,1.70
2022-09-07T13:41:34.347Z,1.70
2022-09-07T13:42:34.325Z,1.90
2022-09-07T13:43:34.382Z,1.90
2022-09-07T13:44:34.398Z,1.60
2022-09-07T13:45:34.322Z,1.60
2022-09-07T13:46:34.308Z,1.80
2022-09-07T13:47:34.261Z,1.70
2022-09-07T13:48:34.290Z,1.80
2022-09-07T13:49:34.281Z,1.70
2022-09-07T13:50:34.402Z,3.00
2022-09-07T13:51:34.368Z,2.20
2022-09-07T13:52:34.247Z,1.80
2022-09-07T13:53:34.430Z,2.90
2022-09-07T13:54:34.529Z,2.10
2022-09-07T13:55:34.428Z,2.00
2022-09-07T13:56:34.426Z,2.00
2022-09-07T13:57:34.378Z,1.90
2022-09-07T13:58:34.357Z,2.00
2022-09-07T13:59:34.339Z,2.00
2022-09-07T14:00:34.411Z,2.00
2022-09-07T14:01:34.385Z,1.90
2022-09-07T14:02:34.318Z,2.20
2022-09-07T14:03:34.366Z,2.00
2022-09-07T14:04:34.275Z,2.00
2022-09-07T14:05:34.304Z,2.00
2022-09-07T14:06:34.485Z,2.20
2022-09-07T14:07:35.153Z,1.80
2022-09-07T14:08:39.239Z,1.60
2022-09-07T14:09:36.220Z,1.80
2022-09-07T14:10:34.143Z,1.80
2022-09-07T14:11:34.263Z,1.80
2022-09-07T14:12:34.131Z,1.60
2022-09-07T14:13:34.108Z,1.90
2022-09-07T14:14:34.153Z,2.20
2022-09-07T14:15:34.215Z,2.00
2022-09-07T14:16:34.227Z,1.70
2022-09-07T14:17:34.198Z,1.40
2022-09-07T14:18:34.128Z,1.40
2022-09-07T14:19:34.166Z,1.50
2022-09-07T14:20:34.139Z,1.60
2022-09-07T14:21:34.157Z,1.80
2022-09-07T14:22:34.141Z,1.70
2022-09-07T14:23:34.433Z,1.60
2022-09-07T14:24:34.124Z,1.90
2022-09-07T14:26:15.854Z,1.80
2022-09-07T14:26:35.980Z,1.60
2022-09-07T14:27:34.100Z,2.40
2022-09-07T14:28:34.329Z,1.90
2022-09-07T14:29:34.046Z,1.80
2022-09-07T14:30:34.045Z,1.70
2022-09-07T14:31:34.739Z,1.90
2022-09-07T14:32:33.972Z,1.60
2022-09-07T14:33:34.231Z,1.70
2022-09-07T14:34:34.162Z,1.60
2022-09-07T14:35:34.055Z,1.80
2022-09-07T14:36:45.400Z,1.80
2022-09-07T14:37:36.542Z,2.30
2022-09-07T14:39:35.989Z,1.70
2022-09-07T14:40:33.997Z,1.50
2022-09-07T14:41:34.035Z,1.40
2022-09-07T14:42:34.005Z,1.50
2022-09-07T14:43:34.006Z,1.50
2022-09-07T14:44:34.023Z,999.90
2022-09-07T14:45:34.083Z,999.90
2022-09-07T14:46:34.147Z,999.90
2022-09-07T14:47:34.060Z,999.90
2022-09-07T14:48:34.713Z,999.90
2022-09-07T14:49:35.023Z,999.90
2022-09-07T14:50:33.984Z,999.90
2022-09-07T14:51:36.611Z,999.90
2022-09-07T14:52:38.125Z,999.90
2022-09-07T14:53:36.061Z,999.90
2022-09-07T14:54:33.933Z,999.90